sensor_id;sensor_type;location;lat;lon;timestamp;P1;durP1;ratioP1;P2;durP2;ratioP2
78824;SDS011;68176;45.554;10.220;2023-11-22T00:01:20;5.88;;;4.35;;
78824;SDS011;68176;45.554;10.220;2023-11-22T00:03:50;4.70;;;3.65;;
78824;SDS011;68176;45.554;10.220;2023-11-22T00:06:20;6.45;;;5.10;;
78824;SDS011;68176;45.554;10.220;2023-11-22T00:08:50;5.80;;;4.13;;
78824;SDS011;68176;45.554;10.220;2023-11-22T00:11:20;7.20;;;4.93;;
78824;SDS011;68176;45.554;10.220;2023-11-22T00:13:50;5.53;;;4.25;;
78824;SDS011;68176;45.554;10.220;2023-11-22T00:16:20;6.10;;;4.65;;
78824;SDS011;68176;45.554;10.220;2023-11-22T00:18:51;7.50;;;4.55;;
78824;SDS011;68176;45.554;10.220;2023-11-22T00:21:20;6.68;;;4.60;;
78824;SDS011;68176;45.554;10.220;2023-11-22T00:23:50;6.15;;;4.65;;
78824;SDS011;68176;45.554;10.220;2023-11-22T00:28:51;7.82;;;5.15;;
78824;SDS011;68176;45.554;10.220;2023-11-22T00:31:21;6.25;;;4.05;;
78824;SDS011;68176;45.554;10.220;2023-11-22T00:33:50;6.15;;;4.50;;
78824;SDS011;68176;45.554;10.220;2023-11-22T00:36:21;5.28;;;4.15;;
78824;SDS011;68176;45.554;10.220;2023-11-22T00:41:21;5.90;;;4.45;;
78824;SDS011;68176;45.554;10.220;2023-11-22T00:43:50;6.75;;;4.78;;
78824;SDS011;68176;45.554;10.220;2023-11-22T00:46:21;6.88;;;5.78;;
78824;SDS011;68176;45.554;10.220;2023-11-22T00:48:51;5.88;;;4.15;;
78824;SDS011;68176;45.554;10.220;2023-11-22T00:51:21;6.03;;;4.28;;
78824;SDS011;68176;45.554;10.220;2023-11-22T00:53:51;7.25;;;4.60;;
78824;SDS011;68176;45.554;10.220;2023-11-22T00:56:21;6.40;;;4.30;;
78824;SDS011;68176;45.554;10.220;2023-11-22T00:58:51;5.18;;;4.07;;
78824;SDS011;68176;45.554;10.220;2023-11-22T01:01:21;6.60;;;5.53;;
78824;SDS011;68176;45.554;10.220;2023-11-22T01:03:51;5.53;;;4.00;;
78824;SDS011;68176;45.554;10.220;2023-11-22T01:06:21;6.03;;;4.20;;
78824;SDS011;68176;45.554;10.220;2023-11-22T01:08:51;6.10;;;4.10;;
78824;SDS011;68176;45.554;10.220;2023-11-22T01:11:21;5.07;;;4.50;;
78824;SDS011;68176;45.554;10.220;2023-11-22T01:16:21;7.05;;;4.57;;
78824;SDS011;68176;45.554;10.220;2023-11-22T01:18:51;4.53;;;3.78;;
78824;SDS011;68176;45.554;10.220;2023-11-22T01:21:21;5.53;;;4.07;;
78824;SDS011;68176;45.554;10.220;2023-11-22T01:23:51;5.60;;;4.30;;
78824;SDS011;68176;45.554;10.220;2023-11-22T01:26:21;7.13;;;4.47;;
78824;SDS011;68176;45.554;10.220;2023-11-22T01:28:51;5.95;;;4.30;;
78824;SDS011;68176;45.554;10.220;2023-11-22T01:31:21;6.05;;;4.68;;
78824;SDS011;68176;45.554;10.220;2023-11-22T01:33:51;5.32;;;3.38;;
78824;SDS011;68176;45.554;10.220;2023-11-22T01:36:21;5.28;;;4.20;;
78824;SDS011;68176;45.554;10.220;2023-11-22T01:38:51;5.30;;;4.15;;
78824;SDS011;68176;45.554;10.220;2023-11-22T01:41:21;8.27;;;4.93;;
78824;SDS011;68176;45.554;10.220;2023-11-22T01:43:51;6.35;;;4.45;;
78824;SDS011;68176;45.554;10.220;2023-11-22T01:46:22;4.65;;;3.42;;
78824;SDS011;68176;45.554;10.220;2023-11-22T01:51:21;4.95;;;3.33;;
78824;SDS011;68176;45.554;10.220;2023-11-22T01:53:51;7.97;;;5.82;;
78824;SDS011;68176;45.554;10.220;2023-11-22T01:56:22;7.00;;;3.72;;
78824;SDS011;68176;45.554;10.220;2023-11-22T01:58:51;6.63;;;4.47;;
78824;SDS011;68176;45.554;10.220;2023-11-22T02:01:21;6.47;;;4.28;;
78824;SDS011;68176;45.554;10.220;2023-11-22T02:03:51;5.15;;;4.18;;
78824;SDS011;68176;45.554;10.220;2023-11-22T02:06:21;4.90;;;3.50;;
78824;SDS011;68176;45.554;10.220;2023-11-22T02:08:51;4.68;;;3.55;;
78824;SDS011;68176;45.554;10.220;2023-11-22T02:11:21;5.53;;;4.10;;
78824;SDS011;68176;45.554;10.220;2023-11-22T02:13:51;4.35;;;3.55;;
78824;SDS011;68176;45.554;10.220;2023-11-22T02:16:21;5.60;;;3.95;;
78824;SDS011;68176;45.554;10.220;2023-11-22T02:18:51;5.65;;;4.10;;
78824;SDS011;68176;45.554;10.220;2023-11-22T02:21:21;5.10;;;3.53;;
78824;SDS011;68176;45.554;10.220;2023-11-22T02:23:51;5.82;;;4.15;;
78824;SDS011;68176;45.554;10.220;2023-11-22T02:26:21;4.90;;;3.83;;
78824;SDS011;68176;45.554;10.220;2023-11-22T02:28:51;5.55;;;4.25;;
78824;SDS011;68176;45.554;10.220;2023-11-22T02:31:21;6.57;;;4.60;;
78824;SDS011;68176;45.554;10.220;2023-11-22T02:33:51;5.25;;;3.25;;
78824;SDS011;68176;45.554;10.220;2023-11-22T02:36:24;5.18;;;4.28;;
78824;SDS011;68176;45.554;10.220;2023-11-22T02:38:51;5.20;;;3.80;;
78824;SDS011;68176;45.554;10.220;2023-11-22T02:41:21;5.53;;;3.40;;
78824;SDS011;68176;45.554;10.220;2023-11-22T02:43:51;5.75;;;3.70;;
78824;SDS011;68176;45.554;10.220;2023-11-22T02:46:21;4.85;;;3.30;;
78824;SDS011;68176;45.554;10.220;2023-11-22T02:48:51;4.47;;;3.50;;
78824;SDS011;68176;45.554;10.220;2023-11-22T02:51:21;6.82;;;3.75;;
78824;SDS011;68176;45.554;10.220;2023-11-22T02:53:52;5.38;;;3.72;;
78824;SDS011;68176;45.554;10.220;2023-11-22T02:56:21;5.70;;;5.03;;
78824;SDS011;68176;45.554;10.220;2023-11-22T03:01:21;4.72;;;3.45;;
78824;SDS011;68176;45.554;10.220;2023-11-22T03:03:51;6.22;;;3.63;;
78824;SDS011;68176;45.554;10.220;2023-11-22T03:06:21;6.72;;;4.13;;
78824;SDS011;68176;45.554;10.220;2023-11-22T03:11:21;4.90;;;3.10;;
78824;SDS011;68176;45.554;10.220;2023-11-22T03:16:21;5.05;;;3.95;;
78824;SDS011;68176;45.554;10.220;2023-11-22T03:18:51;5.05;;;3.72;;
78824;SDS011;68176;45.554;10.220;2023-11-22T03:23:52;6.57;;;3.72;;
78824;SDS011;68176;45.554;10.220;2023-11-22T03:26:21;3.42;;;2.95;;
78824;SDS011;68176;45.554;10.220;2023-11-22T03:28:51;5.32;;;3.53;;
78824;SDS011;68176;45.554;10.220;2023-11-22T03:31:22;4.95;;;3.67;;
78824;SDS011;68176;45.554;10.220;2023-11-22T03:33:51;4.65;;;3.58;;
78824;SDS011;68176;45.554;10.220;2023-11-22T03:36:21;5.10;;;4.35;;
78824;SDS011;68176;45.554;10.220;2023-11-22T03:38:51;5.25;;;3.45;;
78824;SDS011;68176;45.554;10.220;2023-11-22T03:41:22;4.72;;;3.75;;
78824;SDS011;68176;45.554;10.220;2023-11-22T03:43:52;4.93;;;4.18;;
78824;SDS011;68176;45.554;10.220;2023-11-22T03:46:21;7.00;;;3.55;;
78824;SDS011;68176;45.554;10.220;2023-11-22T03:48:52;4.82;;;3.72;;
78824;SDS011;68176;45.554;10.220;2023-11-22T03:51:21;5.75;;;3.55;;
78824;SDS011;68176;45.554;10.220;2023-11-22T03:53:52;4.75;;;3.20;;
78824;SDS011;68176;45.554;10.220;2023-11-22T03:56:22;4.88;;;3.85;;
78824;SDS011;68176;45.554;10.220;2023-11-22T04:01:22;5.13;;;3.33;;
78824;SDS011;68176;45.554;10.220;2023-11-22T04:03:52;4.20;;;3.28;;
78824;SDS011;68176;45.554;10.220;2023-11-22T04:06:22;4.47;;;3.60;;
78824;SDS011;68176;45.554;10.220;2023-11-22T04:08:52;4.45;;;2.75;;
78824;SDS011;68176;45.554;10.220;2023-11-22T04:11:22;4.25;;;3.03;;
78824;SDS011;68176;45.554;10.220;2023-11-22T04:13:52;3.67;;;2.97;;
78824;SDS011;68176;45.554;10.220;2023-11-22T04:16:22;5.13;;;3.53;;
78824;SDS011;68176;45.554;10.220;2023-11-22T04:18:51;4.80;;;3.03;;
78824;SDS011;68176;45.554;10.220;2023-11-22T04:21:22;4.35;;;3.05;;
78824;SDS011;68176;45.554;10.220;2023-11-22T04:23:51;4.07;;;3.05;;
78824;SDS011;68176;45.554;10.220;2023-11-22T04:28:52;5.15;;;3.78;;
78824;SDS011;68176;45.554;10.220;2023-11-22T04:31:22;3.25;;;2.60;;
78824;SDS011;68176;45.554;10.220;2023-11-22T04:33:52;4.05;;;3.08;;
78824;SDS011;68176;45.554;10.220;2023-11-22T04:36:22;4.45;;;3.15;;
78824;SDS011;68176;45.554;10.220;2023-11-22T04:38:52;3.15;;;2.72;;
78824;SDS011;68176;45.554;10.220;2023-11-22T04:41:22;3.97;;;3.03;;
78824;SDS011;68176;45.554;10.220;2023-11-22T04:43:52;5.38;;;3.85;;
78824;SDS011;68176;45.554;10.220;2023-11-22T04:46:22;3.90;;;3.33;;
78824;SDS011;68176;45.554;10.220;2023-11-22T04:48:52;5.13;;;2.95;;
78824;SDS011;68176;45.554;10.220;2023-11-22T04:51:22;5.60;;;3.42;;
78824;SDS011;68176;45.554;10.220;2023-11-22T04:53:52;4.20;;;3.15;;
78824;SDS011;68176;45.554;10.220;2023-11-22T04:56:22;5.22;;;3.40;;
78824;SDS011;68176;45.554;10.220;2023-11-22T04:58:52;3.90;;;2.67;;
78824;SDS011;68176;45.554;10.220;2023-11-22T05:01:22;3.65;;;2.83;;
78824;SDS011;68176;45.554;10.220;2023-11-22T05:03:52;5.95;;;3.53;;
78824;SDS011;68176;45.554;10.220;2023-11-22T05:06:22;4.43;;;2.97;;
78824;SDS011;68176;45.554;10.220;2023-11-22T05:08:52;3.95;;;2.97;;
78824;SDS011;68176;45.554;10.220;2023-11-22T05:11:22;4.70;;;2.92;;
78824;SDS011;68176;45.554;10.220;2023-11-22T05:13:52;3.28;;;2.60;;
78824;SDS011;68176;45.554;10.220;2023-11-22T05:16:22;4.30;;;3.05;;
78824;SDS011;68176;45.554;10.220;2023-11-22T05:18:52;3.88;;;2.72;;
78824;SDS011;68176;45.554;10.220;2023-11-22T05:23:52;4.63;;;3.20;;
78824;SDS011;68176;45.554;10.220;2023-11-22T05:26:22;3.88;;;2.88;;
78824;SDS011;68176;45.554;10.220;2023-11-22T05:31:22;5.47;;;2.83;;
78824;SDS011;68176;45.554;10.220;2023-11-22T05:33:52;3.95;;;2.78;;
78824;SDS011;68176;45.554;10.220;2023-11-22T05:36:22;4.72;;;2.97;;
78824;SDS011;68176;45.554;10.220;2023-11-22T05:41:22;5.10;;;3.30;;
78824;SDS011;68176;45.554;10.220;2023-11-22T05:43:52;4.05;;;2.72;;
78824;SDS011;68176;45.554;10.220;2023-11-22T05:46:22;4.55;;;3.15;;
78824;SDS011;68176;45.554;10.220;2023-11-22T05:48:52;3.25;;;2.20;;
78824;SDS011;68176;45.554;10.220;2023-11-22T05:53:52;3.63;;;2.45;;
78824;SDS011;68176;45.554;10.220;2023-11-22T05:56:22;5.03;;;4.57;;
78824;SDS011;68176;45.554;10.220;2023-11-22T05:58:52;3.50;;;2.90;;
78824;SDS011;68176;45.554;10.220;2023-11-22T06:01:22;2.63;;;1.80;;
78824;SDS011;68176;45.554;10.220;2023-11-22T06:06:22;3.30;;;2.30;;
78824;SDS011;68176;45.554;10.220;2023-11-22T06:08:52;3.67;;;2.55;;
78824;SDS011;68176;45.554;10.220;2023-11-22T06:11:22;5.15;;;4.68;;
78824;SDS011;68176;45.554;10.220;2023-11-22T06:13:52;3.90;;;2.05;;
78824;SDS011;68176;45.554;10.220;2023-11-22T06:18:52;4.50;;;2.97;;
78824;SDS011;68176;45.554;10.220;2023-11-22T06:21:22;4.15;;;2.75;;
78824;SDS011;68176;45.554;10.220;2023-11-22T06:23:53;3.30;;;2.63;;
78824;SDS011;68176;45.554;10.220;2023-11-22T06:26:22;3.92;;;2.95;;
78824;SDS011;68176;45.554;10.220;2023-11-22T06:28:53;3.63;;;2.00;;
78824;SDS011;68176;45.554;10.220;2023-11-22T06:31:22;3.47;;;2.67;;
78824;SDS011;68176;45.554;10.220;2023-11-22T06:33:52;3.33;;;2.85;;
78824;SDS011;68176;45.554;10.220;2023-11-22T06:36:22;4.32;;;3.00;;
78824;SDS011;68176;45.554;10.220;2023-11-22T06:38:53;4.47;;;2.60;;
78824;SDS011;68176;45.554;10.220;2023-11-22T06:41:22;3.72;;;2.15;;
78824;SDS011;68176;45.554;10.220;2023-11-22T06:43:52;3.97;;;3.30;;
78824;SDS011;68176;45.554;10.220;2023-11-22T06:46:22;4.15;;;3.00;;
78824;SDS011;68176;45.554;10.220;2023-11-22T06:48:52;4.13;;;2.90;;
78824;SDS011;68176;45.554;10.220;2023-11-22T06:51:22;3.97;;;2.80;;
78824;SDS011;68176;45.554;10.220;2023-11-22T06:53:52;4.13;;;2.72;;
78824;SDS011;68176;45.554;10.220;2023-11-22T06:56:23;3.40;;;2.15;;
78824;SDS011;68176;45.554;10.220;2023-11-22T06:58:52;2.85;;;2.28;;
78824;SDS011;68176;45.554;10.220;2023-11-22T07:01:23;3.63;;;2.78;;
78824;SDS011;68176;45.554;10.220;2023-11-22T07:03:52;3.75;;;2.13;;
78824;SDS011;68176;45.554;10.220;2023-11-22T07:06:23;3.45;;;2.72;;
78824;SDS011;68176;45.554;10.220;2023-11-22T07:08:53;5.75;;;3.25;;
78824;SDS011;68176;45.554;10.220;2023-11-22T07:11:23;9.63;;;5.38;;
78824;SDS011;68176;45.554;10.220;2023-11-22T07:13:53;8.27;;;4.05;;
78824;SDS011;68176;45.554;10.220;2023-11-22T07:16:23;9.55;;;4.53;;
78824;SDS011;68176;45.554;10.220;2023-11-22T07:18:53;5.60;;;3.13;;
78824;SDS011;68176;45.554;10.220;2023-11-22T07:21:23;7.38;;;4.22;;
78824;SDS011;68176;45.554;10.220;2023-11-22T07:23:53;7.18;;;3.40;;
78824;SDS011;68176;45.554;10.220;2023-11-22T07:26:23;5.90;;;4.13;;
78824;SDS011;68176;45.554;10.220;2023-11-22T07:28:53;8.23;;;4.10;;
78824;SDS011;68176;45.554;10.220;2023-11-22T07:31:22;8.15;;;4.00;;
78824;SDS011;68176;45.554;10.220;2023-11-22T07:33:53;8.57;;;4.55;;
78824;SDS011;68176;45.554;10.220;2023-11-22T07:41:23;6.57;;;4.47;;
78824;SDS011;68176;45.554;10.220;2023-11-22T07:43:53;8.45;;;3.92;;
78824;SDS011;68176;45.554;10.220;2023-11-22T07:46:23;8.63;;;4.00;;
78824;SDS011;68176;45.554;10.220;2023-11-22T07:48:53;8.60;;;4.63;;
78824;SDS011;68176;45.554;10.220;2023-11-22T07:51:23;7.38;;;4.20;;
78824;SDS011;68176;45.554;10.220;2023-11-22T07:53:53;9.90;;;3.70;;
78824;SDS011;68176;45.554;10.220;2023-11-22T07:58:53;9.40;;;4.72;;
78824;SDS011;68176;45.554;10.220;2023-11-22T08:01:23;10.07;;;4.35;;
78824;SDS011;68176;45.554;10.220;2023-11-22T08:03:53;6.22;;;4.22;;
78824;SDS011;68176;45.554;10.220;2023-11-22T08:08:53;9.30;;;4.13;;
78824;SDS011;68176;45.554;10.220;2023-11-22T08:11:23;6.22;;;4.57;;
78824;SDS011;68176;45.554;10.220;2023-11-22T08:13:53;8.13;;;5.28;;
78824;SDS011;68176;45.554;10.220;2023-11-22T08:16:23;10.80;;;4.38;;
78824;SDS011;68176;45.554;10.220;2023-11-22T08:18:53;8.65;;;4.28;;
78824;SDS011;68176;45.554;10.220;2023-11-22T08:36:34;6.90;;;2.80;;
78824;SDS011;68176;45.554;10.220;2023-11-22T08:39:01;3.25;;;2.80;;
78824;SDS011;68176;45.554;10.220;2023-11-22T08:41:30;7.25;;;4.63;;
78824;SDS011;68176;45.554;10.220;2023-11-22T08:44:00;9.20;;;4.68;;
78824;SDS011;68176;45.554;10.220;2023-11-22T08:46:30;11.15;;;4.70;;
78824;SDS011;68176;45.554;10.220;2023-11-22T08:49:00;6.70;;;4.18;;
78824;SDS011;68176;45.554;10.220;2023-11-22T08:51:31;6.95;;;4.70;;
78824;SDS011;68176;45.554;10.220;2023-11-22T08:54:00;8.18;;;3.22;;
78824;SDS011;68176;45.554;10.220;2023-11-22T08:56:30;7.50;;;4.85;;
78824;SDS011;68176;45.554;10.220;2023-11-22T08:59:00;10.90;;;4.95;;
78824;SDS011;68176;45.554;10.220;2023-11-22T09:01:30;15.60;;;5.97;;
78824;SDS011;68176;45.554;10.220;2023-11-22T09:04:01;8.05;;;3.90;;
78824;SDS011;68176;45.554;10.220;2023-11-22T09:11:31;4.97;;;3.17;;
78824;SDS011;68176;45.554;10.220;2023-11-22T09:14:01;5.97;;;3.88;;
78824;SDS011;68176;45.554;10.220;2023-11-22T09:16:37;6.47;;;4.55;;
78824;SDS011;68176;45.554;10.220;2023-11-22T09:19:03;8.15;;;2.90;;
78824;SDS011;68176;45.554;10.220;2023-11-22T09:21:31;5.50;;;3.45;;
78824;SDS011;68176;45.554;10.220;2023-11-22T09:24:01;5.50;;;3.47;;
78824;SDS011;68176;45.554;10.220;2023-11-22T09:26:31;9.93;;;3.95;;
78824;SDS011;68176;45.554;10.220;2023-11-22T09:29:01;6.70;;;3.55;;
78824;SDS011;68176;45.554;10.220;2023-11-22T09:31:31;4.90;;;3.40;;
78824;SDS011;68176;45.554;10.220;2023-11-22T09:34:01;14.13;;;3.33;;
78824;SDS011;68176;45.554;10.220;2023-11-22T09:36:31;7.60;;;3.15;;
78824;SDS011;68176;45.554;10.220;2023-11-22T09:39:01;5.68;;;3.08;;
78824;SDS011;68176;45.554;10.220;2023-11-22T09:41:31;4.97;;;3.40;;
78824;SDS011;68176;45.554;10.220;2023-11-22T09:44:01;4.65;;;2.95;;
78824;SDS011;68176;45.554;10.220;2023-11-22T09:46:30;7.00;;;2.55;;
78824;SDS011;68176;45.554;10.220;2023-11-22T09:49:01;5.30;;;2.45;;
78824;SDS011;68176;45.554;10.220;2023-11-22T09:51:33;3.75;;;2.25;;
78824;SDS011;68176;45.554;10.220;2023-11-22T09:54:04;3.50;;;2.50;;
78824;SDS011;68176;45.554;10.220;2023-11-22T09:56:32;0.80;;;0.40;;
78824;SDS011;68176;45.554;10.220;2023-11-22T09:59:01;2.80;;;1.55;;
78824;SDS011;68176;45.554;10.220;2023-11-22T10:01:31;4.78;;;3.10;;
78824;SDS011;68176;45.554;10.220;2023-11-22T10:04:01;8.40;;;3.63;;
78824;SDS011;68176;45.554;10.220;2023-11-22T10:06:31;4.60;;;2.90;;
78824;SDS011;68176;45.554;10.220;2023-11-22T10:09:01;5.82;;;2.95;;
78824;SDS011;68176;45.554;10.220;2023-11-22T10:11:32;3.10;;;0.80;;
78824;SDS011;68176;45.554;10.220;2023-11-22T10:14:01;9.48;;;2.88;;
78824;SDS011;68176;45.554;10.220;2023-11-22T10:16:31;4.85;;;2.30;;
78824;SDS011;68176;45.554;10.220;2023-11-22T10:19:01;3.53;;;2.63;;
78824;SDS011;68176;45.554;10.220;2023-11-22T10:21:31;5.20;;;2.80;;
78824;SDS011;68176;45.554;10.220;2023-11-22T10:24:01;5.50;;;2.28;;
78824;SDS011;68176;45.554;10.220;2023-11-22T10:26:31;5.80;;;2.42;;
78824;SDS011;68176;45.554;10.220;2023-11-22T10:29:01;3.03;;;2.22;;
78824;SDS011;68176;45.554;10.220;2023-11-22T10:31:33;3.47;;;2.47;;
78824;SDS011;68176;45.554;10.220;2023-11-22T10:34:01;4.15;;;1.63;;
78824;SDS011;68176;45.554;10.220;2023-11-22T10:36:31;4.82;;;2.60;;
78824;SDS011;68176;45.554;10.220;2023-11-22T10:39:01;6.20;;;2.22;;
78824;SDS011;68176;45.554;10.220;2023-11-22T10:41:31;3.95;;;2.47;;
78824;SDS011;68176;45.554;10.220;2023-11-22T10:44:01;4.07;;;1.92;;
78824;SDS011;68176;45.554;10.220;2023-11-22T10:46:31;5.13;;;2.97;;
78824;SDS011;68176;45.554;10.220;2023-11-22T10:51:31;6.57;;;2.97;;
78824;SDS011;68176;45.554;10.220;2023-11-22T10:54:01;3.92;;;2.03;;
78824;SDS011;68176;45.554;10.220;2023-11-22T10:56:40;4.07;;;2.53;;
78824;SDS011;68176;45.554;10.220;2023-11-22T10:59:13;3.42;;;2.65;;
78824;SDS011;68176;45.554;10.220;2023-11-22T11:01:39;7.00;;;6.40;;
78824;SDS011;68176;45.554;10.220;2023-11-22T11:04:11;4.00;;;2.47;;
78824;SDS011;68176;45.554;10.220;2023-11-22T11:06:44;3.03;;;1.90;;
78824;SDS011;68176;45.554;10.220;2023-11-22T11:09:16;7.77;;;2.60;;
78824;SDS011;68176;45.554;10.220;2023-11-22T11:11:46;2.40;;;1.57;;
78824;SDS011;68176;45.554;10.220;2023-11-22T11:14:12;1.80;;;0.90;;
78824;SDS011;68176;45.554;10.220;2023-11-22T11:16:40;2.55;;;1.85;;
78824;SDS011;68176;45.554;10.220;2023-11-22T11:19:12;1.20;;;0.60;;
78824;SDS011;68176;45.554;10.220;2023-11-22T11:21:40;2.97;;;1.98;;
78824;SDS011;68176;45.554;10.220;2023-11-22T11:26:40;4.25;;;2.17;;
78824;SDS011;68176;45.554;10.220;2023-11-22T11:29:23;2.65;;;1.33;;
78824;SDS011;68176;45.554;10.220;2023-11-22T11:31:54;2.47;;;1.48;;
78824;SDS011;68176;45.554;10.220;2023-11-22T11:34:21;2.00;;;1.60;;
78824;SDS011;68176;45.554;10.220;2023-11-22T11:39:21;5.30;;;2.20;;
78824;SDS011;68176;45.554;10.220;2023-11-22T11:41:53;2.93;;;1.50;;
78824;SDS011;68176;45.554;10.220;2023-11-22T11:44:33;2.60;;;1.97;;
78824;SDS011;68176;45.554;10.220;2023-11-22T11:46:58;3.70;;;1.85;;
78824;SDS011;68176;45.554;10.220;2023-11-22T11:49:27;2.75;;;1.83;;
78824;SDS011;68176;45.554;10.220;2023-11-22T11:51:59;2.22;;;1.75;;
78824;SDS011;68176;45.554;10.220;2023-11-22T11:54:27;3.17;;;1.88;;
78824;SDS011;68176;45.554;10.220;2023-11-22T11:57:00;2.63;;;1.77;;
78824;SDS011;68176;45.554;10.220;2023-11-22T11:59:27;2.60;;;1.50;;
78824;SDS011;68176;45.554;10.220;2023-11-22T12:01:57;4.07;;;2.22;;
78824;SDS011;68176;45.554;10.220;2023-11-22T12:04:27;4.63;;;2.03;;
78824;SDS011;68176;45.554;10.220;2023-11-22T12:06:57;2.38;;;1.38;;
78824;SDS011;68176;45.554;10.220;2023-11-22T12:09:27;4.03;;;2.33;;
78824;SDS011;68176;45.554;10.220;2023-11-22T12:11:59;2.15;;;1.73;;
78824;SDS011;68176;45.554;10.220;2023-11-22T12:14:27;3.97;;;2.28;;
78824;SDS011;68176;45.554;10.220;2023-11-22T12:16:57;8.02;;;2.40;;
78824;SDS011;68176;45.554;10.220;2023-11-22T12:19:27;4.60;;;2.40;;
78824;SDS011;68176;45.554;10.220;2023-11-22T12:21:57;2.85;;;2.13;;
78824;SDS011;68176;45.554;10.220;2023-11-22T12:24:27;7.68;;;2.58;;
78824;SDS011;68176;45.554;10.220;2023-11-22T12:26:57;3.53;;;2.10;;
78824;SDS011;68176;45.554;10.220;2023-11-22T12:29:27;3.95;;;2.67;;
78824;SDS011;68176;45.554;10.220;2023-11-22T12:31:57;6.35;;;2.47;;
78824;SDS011;68176;45.554;10.220;2023-11-22T12:34:27;3.75;;;1.83;;
78824;SDS011;68176;45.554;10.220;2023-11-22T12:36:57;3.47;;;2.08;;
78824;SDS011;68176;45.554;10.220;2023-11-22T12:39:27;3.20;;;1.88;;
78824;SDS011;68176;45.554;10.220;2023-11-22T12:41:57;3.88;;;1.38;;
78824;SDS011;68176;45.554;10.220;2023-11-22T12:46:57;3.55;;;1.75;;
78824;SDS011;68176;45.554;10.220;2023-11-22T12:49:27;3.25;;;1.90;;
78824;SDS011;68176;45.554;10.220;2023-11-22T12:51:57;4.05;;;2.05;;
78824;SDS011;68176;45.554;10.220;2023-11-22T12:54:27;5.25;;;1.70;;
78824;SDS011;68176;45.554;10.220;2023-11-22T12:56:57;2.80;;;1.85;;
78824;SDS011;68176;45.554;10.220;2023-11-22T12:59:27;3.85;;;1.92;;
78824;SDS011;68176;45.554;10.220;2023-11-22T13:01:57;2.97;;;1.73;;
78824;SDS011;68176;45.554;10.220;2023-11-22T13:04:27;4.25;;;1.73;;
78824;SDS011;68176;45.554;10.220;2023-11-22T13:06:57;2.38;;;1.27;;
78824;SDS011;68176;45.554;10.220;2023-11-22T13:09:27;3.38;;;1.42;;
78824;SDS011;68176;45.554;10.220;2023-11-22T13:11:57;3.17;;;1.80;;
78824;SDS011;68176;45.554;10.220;2023-11-22T13:14:27;2.92;;;1.83;;
78824;SDS011;68176;45.554;10.220;2023-11-22T13:17:00;2.90;;;1.70;;
78824;SDS011;68176;45.554;10.220;2023-11-22T13:19:27;1.40;;;0.90;;
78824;SDS011;68176;45.554;10.220;2023-11-22T13:21:57;3.80;;;1.92;;
78824;SDS011;68176;45.554;10.220;2023-11-22T13:24:27;3.17;;;1.38;;
78824;SDS011;68176;45.554;10.220;2023-11-22T13:26:57;3.95;;;1.83;;
78824;SDS011;68176;45.554;10.220;2023-11-22T13:29:27;4.07;;;1.85;;
78824;SDS011;68176;45.554;10.220;2023-11-22T13:31:57;3.33;;;1.48;;
78824;SDS011;68176;45.554;10.220;2023-11-22T13:34:27;4.53;;;1.95;;
78824;SDS011;68176;45.554;10.220;2023-11-22T13:36:57;3.08;;;1.75;;
78824;SDS011;68176;45.554;10.220;2023-11-22T13:39:27;3.15;;;2.13;;
78824;SDS011;68176;45.554;10.220;2023-11-22T13:41:57;2.83;;;2.05;;
78824;SDS011;68176;45.554;10.220;2023-11-22T13:44:27;3.45;;;1.73;;
78824;SDS011;68176;45.554;10.220;2023-11-22T13:46:57;3.33;;;1.80;;
78824;SDS011;68176;45.554;10.220;2023-11-22T13:49:27;3.38;;;1.80;;
78824;SDS011;68176;45.554;10.220;2023-11-22T13:51:57;2.35;;;1.30;;
78824;SDS011;68176;45.554;10.220;2023-11-22T13:54:27;2.63;;;1.38;;
78824;SDS011;68176;45.554;10.220;2023-11-22T13:56:57;4.32;;;1.60;;
78824;SDS011;68176;45.554;10.220;2023-11-22T13:59:27;3.28;;;1.40;;
78824;SDS011;68176;45.554;10.220;2023-11-22T14:01:57;5.65;;;1.23;;
78824;SDS011;68176;45.554;10.220;2023-11-22T14:04:27;2.53;;;1.35;;
78824;SDS011;68176;45.554;10.220;2023-11-22T14:06:57;3.25;;;1.92;;
78824;SDS011;68176;45.554;10.220;2023-11-22T14:09:27;2.60;;;1.50;;
78824;SDS011;68176;45.554;10.220;2023-11-22T14:11:57;2.60;;;1.52;;
78824;SDS011;68176;45.554;10.220;2023-11-22T14:14:27;2.78;;;1.88;;
78824;SDS011;68176;45.554;10.220;2023-11-22T14:16:57;5.13;;;3.53;;
78824;SDS011;68176;45.554;10.220;2023-11-22T14:19:27;3.90;;;3.05;;
78824;SDS011;68176;45.554;10.220;2023-11-22T14:21:57;9.25;;;3.65;;
78824;SDS011;68176;45.554;10.220;2023-11-22T14:24:27;9.00;;;4.05;;
78824;SDS011;68176;45.554;10.220;2023-11-22T14:26:57;22.60;;;4.88;;
78824;SDS011;68176;45.554;10.220;2023-11-22T14:29:27;14.40;;;6.35;;
78824;SDS011;68176;45.554;10.220;2023-11-22T14:31:58;27.85;;;4.47;;
78824;SDS011;68176;45.554;10.220;2023-11-22T14:34:28;29.90;;;4.45;;
78824;SDS011;68176;45.554;10.220;2023-11-22T14:36:57;29.65;;;4.82;;
78824;SDS011;68176;45.554;10.220;2023-11-22T14:39:27;28.38;;;4.68;;
78824;SDS011;68176;45.554;10.220;2023-11-22T14:41:58;19.75;;;4.40;;
78824;SDS011;68176;45.554;10.220;2023-11-22T14:44:28;26.00;;;4.30;;
78824;SDS011;68176;45.554;10.220;2023-11-22T14:46:58;14.57;;;4.13;;
78824;SDS011;68176;45.554;10.220;2023-11-22T14:49:27;17.92;;;3.92;;
78824;SDS011;68176;45.554;10.220;2023-11-22T14:51:57;10.20;;;3.30;;
78824;SDS011;68176;45.554;10.220;2023-11-22T14:54:28;15.88;;;3.63;;
78824;SDS011;68176;45.554;10.220;2023-11-22T14:56:58;12.98;;;3.35;;
78824;SDS011;68176;45.554;10.220;2023-11-22T14:59:28;25.63;;;3.78;;
78824;SDS011;68176;45.554;10.220;2023-11-22T15:01:58;16.83;;;3.20;;
78824;SDS011;68176;45.554;10.220;2023-11-22T15:04:27;17.45;;;2.92;;
78824;SDS011;68176;45.554;10.220;2023-11-22T15:06:58;18.33;;;2.67;;
78824;SDS011;68176;45.554;10.220;2023-11-22T15:09:27;19.73;;;3.20;;
78824;SDS011;68176;45.554;10.220;2023-11-22T15:11:58;13.95;;;3.03;;
78824;SDS011;68176;45.554;10.220;2023-11-22T15:14:28;19.45;;;3.72;;
78824;SDS011;68176;45.554;10.220;2023-11-22T15:16:58;8.65;;;3.05;;
78824;SDS011;68176;45.554;10.220;2023-11-22T15:19:28;15.90;;;2.83;;
78824;SDS011;68176;45.554;10.220;2023-11-22T15:21:58;15.88;;;2.55;;
78824;SDS011;68176;45.554;10.220;2023-11-22T15:24:28;16.67;;;2.53;;
78824;SDS011;68176;45.554;10.220;2023-11-22T15:26:58;14.15;;;2.83;;
78824;SDS011;68176;45.554;10.220;2023-11-22T15:29:28;14.88;;;2.80;;
78824;SDS011;68176;45.554;10.220;2023-11-22T15:31:58;11.32;;;2.40;;
78824;SDS011;68176;45.554;10.220;2023-11-22T15:34:28;19.02;;;2.78;;
78824;SDS011;68176;45.554;10.220;2023-11-22T15:36:58;12.05;;;2.10;;
78824;SDS011;68176;45.554;10.220;2023-11-22T15:39:28;11.38;;;2.25;;
78824;SDS011;68176;45.554;10.220;2023-11-22T15:41:58;9.57;;;2.53;;
78824;SDS011;68176;45.554;10.220;2023-11-22T15:44:28;7.90;;;2.10;;
78824;SDS011;68176;45.554;10.220;2023-11-22T15:46:58;10.10;;;1.92;;
78824;SDS011;68176;45.554;10.220;2023-11-22T15:49:28;12.38;;;2.30;;
78824;SDS011;68176;45.554;10.220;2023-11-22T15:51:58;11.90;;;3.28;;
78824;SDS011;68176;45.554;10.220;2023-11-22T15:54:28;8.13;;;2.22;;
78824;SDS011;68176;45.554;10.220;2023-11-22T15:56:58;47.15;;;7.50;;
78824;SDS011;68176;45.554;10.220;2023-11-22T15:59:28;25.67;;;5.85;;
78824;SDS011;68176;45.554;10.220;2023-11-22T16:01:58;40.80;;;6.57;;
78824;SDS011;68176;45.554;10.220;2023-11-22T16:04:28;13.45;;;5.47;;
78824;SDS011;68176;45.554;10.220;2023-11-22T16:09:28;15.93;;;6.47;;
78824;SDS011;68176;45.554;10.220;2023-11-22T16:11:58;21.52;;;6.53;;